sensor_id;sensor_type;location;lat;lon;timestamp;temperature;humidity
13074;DHT22;6603;47.066;15.396;2024-03-06T00:01:54;6.50;99.90
13074;DHT22;6603;47.066;15.396;2024-03-06T00:04:20;6.50;99.90
13074;DHT22;6603;47.066;15.396;2024-03-06T00:06:46;6.30;99.90
13074;DHT22;6603;47.066;15.396;2024-03-06T00:09:11;6.30;99.90
13074;DHT22;6603;47.066;15.396;2024-03-06T00:11:37;6.20;99.90
13074;DHT22;6603;47.066;15.396;2024-03-06T00:14:03;6.10;99.90
13074;DHT22;6603;47.066;15.396;2024-03-06T00:16:31;6.10;99.90
13074;DHT22;6603;47.066;15.396;2024-03-06T00:18:57;6.30;99.90
13074;DHT22;6603;47.066;15.396;2024-03-06T00:21:23;6.30;99.90
13074;DHT22;6603;47.066;15.396;2024-03-06T00:23:49;6.10;99.90
13074;DHT22;6603;47.066;15.396;2024-03-06T00:26:15;6.10;99.90
13074;DHT22;6603;47.066;15.396;2024-03-06T00:28:41;6.00;99.90
13074;DHT22;6603;47.066;15.396;2024-03-06T00:31:07;6.20;99.90
13074;DHT22;6603;47.066;15.396;2024-03-06T00:33:33;6.10;99.90
13074;DHT22;6603;47.066;15.396;2024-03-06T00:35:59;6.20;99.90
13074;DHT22;6603;47.066;15.396;2024-03-06T00:38:25;6.10;99.90
13074;DHT22;6603;47.066;15.396;2024-03-06T00:40:51;6.10;99.90
13074;DHT22;6603;47.066;15.396;2024-03-06T00:43:17;6.10;99.90
13074;DHT22;6603;47.066;15.396;2024-03-06T00:45:43;6.10;99.90
13074;DHT22;6603;47.066;15.396;2024-03-06T00:48:09;6.20;99.90
13074;DHT22;6603;47.066;15.396;2024-03-06T00:50:35;6.40;99.90
13074;DHT22;6603;47.066;15.396;2024-03-06T00:53:01;6.50;99.90
13074;DHT22;6603;47.066;15.396;2024-03-06T00:55:27;6.40;99.90
13074;DHT22;6603;47.066;15.396;2024-03-06T00:57:52;6.50;99.90
13074;DHT22;6603;47.066;15.396;2024-03-06T01:00:19;6.40;99.90
13074;DHT22;6603;47.066;15.396;2024-03-06T01:02:45;6.50;99.90
13074;DHT22;6603;47.066;15.396;2024-03-06T01:05:11;6.50;99.90
13074;DHT22;6603;47.066;15.396;2024-03-06T01:07:40;6.40;99.90
13074;DHT22;6603;47.066;15.396;2024-03-06T01:10:07;6.30;99.90
13074;DHT22;6603;47.066;15.396;2024-03-06T01:12:34;6.40;99.90
13074;DHT22;6603;47.066;15.396;2024-03-06T01:14:59;6.30;99.90
13074;DHT22;6603;47.066;15.396;2024-03-06T01:17:25;6.30;99.90
13074;DHT22;6603;47.066;15.396;2024-03-06T01:19:52;6.40;99.90
13074;DHT22;6603;47.066;15.396;2024-03-06T01:22:18;6.40;99.90
13074;DHT22;6603;47.066;15.396;2024-03-06T01:24:44;6.50;99.90
13074;DHT22;6603;47.066;15.396;2024-03-06T01:27:10;6.40;99.90
13074;DHT22;6603;47.066;15.396;2024-03-06T01:29:36;6.40;99.90
13074;DHT22;6603;47.066;15.396;2024-03-06T01:32:02;6.30;99.90
13074;DHT22;6603;47.066;15.396;2024-03-06T01:34:28;6.30;99.90
13074;DHT22;6603;47.066;15.396;2024-03-06T01:36:55;6.10;99.90
13074;DHT22;6603;47.066;15.396;2024-03-06T01:39:21;6.10;99.90
13074;DHT22;6603;47.066;15.396;2024-03-06T01:41:48;6.20;99.90
13074;DHT22;6603;47.066;15.396;2024-03-06T01:44:15;6.30;99.90
13074;DHT22;6603;47.066;15.396;2024-03-06T01:46:43;6.20;99.90
13074;DHT22;6603;47.066;15.396;2024-03-06T01:49:11;6.20;99.90
13074;DHT22;6603;47.066;15.396;2024-03-06T01:51:40;6.20;99.90
13074;DHT22;6603;47.066;15.396;2024-03-06T01:54:07;6.10;99.90
13074;DHT22;6603;47.066;15.396;2024-03-06T01:56:34;6.10;99.90
13074;DHT22;6603;47.066;15.396;2024-03-06T01:59:00;6.00;99.90
13074;DHT22;6603;47.066;15.396;2024-03-06T02:01:28;5.90;99.90
13074;DHT22;6603;47.066;15.396;2024-03-06T02:03:55;5.80;99.90
13074;DHT22;6603;47.066;15.396;2024-03-06T02:06:21;5.90;99.90
13074;DHT22;6603;47.066;15.396;2024-03-06T02:08:48;6.10;99.90
13074;DHT22;6603;47.066;15.396;2024-03-06T02:11:14;6.10;99.90
13074;DHT22;6603;47.066;15.396;2024-03-06T02:13:41;6.10;99.90
13074;DHT22;6603;47.066;15.396;2024-03-06T02:16:11;5.90;99.90
13074;DHT22;6603;47.066;15.396;2024-03-06T02:18:37;6.00;99.90
13074;DHT22;6603;47.066;15.396;2024-03-06T02:21:03;5.90;99.90
13074;DHT22;6603;47.066;15.396;2024-03-06T02:23:30;5.70;99.90
13074;DHT22;6603;47.066;15.396;2024-03-06T02:25:56;5.80;99.90
13074;DHT22;6603;47.066;15.396;2024-03-06T02:28:22;5.80;99.90
13074;DHT22;6603;47.066;15.396;2024-03-06T02:30:52;5.80;99.90
13074;DHT22;6603;47.066;15.396;2024-03-06T02:33:17;5.70;99.90
13074;DHT22;6603;47.066;15.396;2024-03-06T02:35:43;5.50;99.90
13074;DHT22;6603;47.066;15.396;2024-03-06T02:38:11;5.60;99.90
13074;DHT22;6603;47.066;15.396;2024-03-06T02:40:37;5.70;99.90
13074;DHT22;6603;47.066;15.396;2024-03-06T02:43:03;5.80;99.90
13074;DHT22;6603;47.066;15.396;2024-03-06T02:45:30;5.60;99.90
13074;DHT22;6603;47.066;15.396;2024-03-06T02:47:56;5.50;99.90
13074;DHT22;6603;47.066;15.396;2024-03-06T02:50:21;5.60;99.90
13074;DHT22;6603;47.066;15.396;2024-03-06T02:52:48;5.60;99.90
13074;DHT22;6603;47.066;15.396;2024-03-06T02:55:14;5.60;99.90
13074;DHT22;6603;47.066;15.396;2024-03-06T02:57:40;5.60;99.90
13074;DHT22;6603;47.066;15.396;2024-03-06T03:00:07;5.70;99.90
13074;DHT22;6603;47.066;15.396;2024-03-06T03:02:39;5.60;99.90
13074;DHT22;6603;47.066;15.396;2024-03-06T03:05:06;5.40;99.90
13074;DHT22;6603;47.066;15.396;2024-03-06T03:07:32;5.30;99.90
13074;DHT22;6603;47.066;15.396;2024-03-06T03:09:57;5.50;99.90
13074;DHT22;6603;47.066;15.396;2024-03-06T03:12:23;5.60;99.90
13074;DHT22;6603;47.066;15.396;2024-03-06T03:14:49;5.50;99.90
13074;DHT22;6603;47.066;15.396;2024-03-06T03:17:16;5.50;99.90
13074;DHT22;6603;47.066;15.396;2024-03-06T03:19:43;5.40;99.90
13074;DHT22;6603;47.066;15.396;2024-03-06T03:22:09;5.30;99.90
13074;DHT22;6603;47.066;15.396;2024-03-06T03:24:35;5.20;99.90
13074;DHT22;6603;47.066;15.396;2024-03-06T03:27:03;5.40;99.90
13074;DHT22;6603;47.066;15.396;2024-03-06T03:29:29;5.40;99.90
13074;DHT22;6603;47.066;15.396;2024-03-06T03:31:55;5.30;99.90
13074;DHT22;6603;47.066;15.396;2024-03-06T03:34:22;5.40;99.90
13074;DHT22;6603;47.066;15.396;2024-03-06T03:36:48;5.30;99.90
13074;DHT22;6603;47.066;15.396;2024-03-06T03:42:33;5.40;99.90
13074;DHT22;6603;47.066;15.396;2024-03-06T03:44:59;5.60;99.90
13074;DHT22;6603;47.066;15.396;2024-03-06T03:47:24;5.70;99.90
13074;DHT22;6603;47.066;15.396;2024-03-06T03:49:50;5.60;99.90
13074;DHT22;6603;47.066;15.396;2024-03-06T03:52:16;5.50;99.90
13074;DHT22;6603;47.066;15.396;2024-03-06T03:54:42;5.60;99.90
13074;DHT22;6603;47.066;15.396;2024-03-06T03:57:08;5.70;99.90
13074;DHT22;6603;47.066;15.396;2024-03-06T03:59:35;5.70;99.90
13074;DHT22;6603;47.066;15.396;2024-03-06T04:02:02;5.70;99.90
13074;DHT22;6603;47.066;15.396;2024-03-06T04:04:29;5.60;99.90
13074;DHT22;6603;47.066;15.396;2024-03-06T04:06:55;5.60;99.90
13074;DHT22;6603;47.066;15.396;2024-03-06T04:09:20;5.50;99.90
13074;DHT22;6603;47.066;15.396;2024-03-06T04:11:46;5.70;99.90
13074;DHT22;6603;47.066;15.396;2024-03-06T04:14:12;5.80;99.90
13074;DHT22;6603;47.066;15.396;2024-03-06T04:16:38;5.90;99.90
13074;DHT22;6603;47.066;15.396;2024-03-06T04:19:04;5.90;99.90
13074;DHT22;6603;47.066;15.396;2024-03-06T04:21:30;5.70;99.90
13074;DHT22;6603;47.066;15.396;2024-03-06T04:23:56;5.60;99.90
13074;DHT22;6603;47.066;15.396;2024-03-06T04:26:22;5.50;99.90
13074;DHT22;6603;47.066;15.396;2024-03-06T04:28:47;5.70;99.90
13074;DHT22;6603;47.066;15.396;2024-03-06T04:31:13;5.80;99.90
13074;DHT22;6603;47.066;15.396;2024-03-06T04:33:41;6.00;99.90
13074;DHT22;6603;47.066;15.396;2024-03-06T04:36:09;5.80;99.90
13074;DHT22;6603;47.066;15.396;2024-03-06T04:38:36;5.90;99.90
13074;DHT22;6603;47.066;15.396;2024-03-06T04:41:01;6.00;99.90
13074;DHT22;6603;47.066;15.396;2024-03-06T04:43:27;6.00;99.90
13074;DHT22;6603;47.066;15.396;2024-03-06T04:45:53;6.10;99.90
13074;DHT22;6603;47.066;15.396;2024-03-06T04:48:19;6.10;99.90
13074;DHT22;6603;47.066;15.396;2024-03-06T04:50:45;6.10;99.90
13074;DHT22;6603;47.066;15.396;2024-03-06T04:53:11;6.00;99.90
13074;DHT22;6603;47.066;15.396;2024-03-06T04:55:37;6.00;99.90
13074;DHT22;6603;47.066;15.396;2024-03-06T04:58:03;5.90;99.90
13074;DHT22;6603;47.066;15.396;2024-03-06T05:00:30;6.10;99.90
13074;DHT22;6603;47.066;15.396;2024-03-06T05:02:56;6.20;99.90
13074;DHT22;6603;47.066;15.396;2024-03-06T05:05:22;6.20;99.90
13074;DHT22;6603;47.066;15.396;2024-03-06T05:07:49;6.20;99.90
13074;DHT22;6603;47.066;15.396;2024-03-06T05:10:15;6.20;99.90
13074;DHT22;6603;47.066;15.396;2024-03-06T05:12:42;6.30;99.90
13074;DHT22;6603;47.066;15.396;2024-03-06T05:15:08;6.30;99.90
13074;DHT22;6603;47.066;15.396;2024-03-06T05:17:35;6.30;99.90
13074;DHT22;6603;47.066;15.396;2024-03-06T05:20:00;6.20;99.90
13074;DHT22;6603;47.066;15.396;2024-03-06T05:22:26;6.20;99.90
13074;DHT22;6603;47.066;15.396;2024-03-06T05:24:52;6.20;99.90
13074;DHT22;6603;47.066;15.396;2024-03-06T05:27:19;6.10;99.90
13074;DHT22;6603;47.066;15.396;2024-03-06T05:29:45;6.10;99.90
13074;DHT22;6603;47.066;15.396;2024-03-06T05:32:11;6.10;99.90
13074;DHT22;6603;47.066;15.396;2024-03-06T05:34:36;6.20;99.90
13074;DHT22;6603;47.066;15.396;2024-03-06T05:37:02;6.20;99.90
13074;DHT22;6603;47.066;15.396;2024-03-06T05:39:32;6.30;99.90
13074;DHT22;6603;47.066;15.396;2024-03-06T05:42:03;6.10;99.90
13074;DHT22;6603;47.066;15.396;2024-03-06T05:44:32;6.20;99.90
13074;DHT22;6603;47.066;15.396;2024-03-06T05:47:02;6.20;99.90
13074;DHT22;6603;47.066;15.396;2024-03-06T05:49:29;6.10;99.90
13074;DHT22;6603;47.066;15.396;2024-03-06T05:51:55;6.30;99.90
13074;DHT22;6603;47.066;15.396;2024-03-06T05:54:22;6.30;99.90
13074;DHT22;6603;47.066;15.396;2024-03-06T05:56:49;6.30;99.90
13074;DHT22;6603;47.066;15.396;2024-03-06T05:59:18;6.40;99.90
13074;DHT22;6603;47.066;15.396;2024-03-06T06:01:44;6.40;99.90
13074;DHT22;6603;47.066;15.396;2024-03-06T06:04:11;6.40;99.90
13074;DHT22;6603;47.066;15.396;2024-03-06T06:06:37;6.50;99.90
13074;DHT22;6603;47.066;15.396;2024-03-06T06:09:04;6.70;99.90
13074;DHT22;6603;47.066;15.396;2024-03-06T06:11:33;6.70;99.90
13074;DHT22;6603;47.066;15.396;2024-03-06T06:13:59;6.70;99.90
13074;DHT22;6603;47.066;15.396;2024-03-06T06:16:25;6.80;99.90
13074;DHT22;6603;47.066;15.396;2024-03-06T06:18:51;6.80;99.90
13074;DHT22;6603;47.066;15.396;2024-03-06T06:21:16;6.80;99.90
13074;DHT22;6603;47.066;15.396;2024-03-06T06:23:43;6.70;99.90
13074;DHT22;6603;47.066;15.396;2024-03-06T06:26:09;6.70;99.90
13074;DHT22;6603;47.066;15.396;2024-03-06T06:28:36;6.70;99.90
13074;DHT22;6603;47.066;15.396;2024-03-06T06:31:04;6.70;99.90
13074;DHT22;6603;47.066;15.396;2024-03-06T06:33:30;6.70;99.90
13074;DHT22;6603;47.066;15.396;2024-03-06T06:35:56;6.70;99.90
13074;DHT22;6603;47.066;15.396;2024-03-06T06:38:22;6.80;99.90
13074;DHT22;6603;47.066;15.396;2024-03-06T06:40:48;6.80;99.90
13074;DHT22;6603;47.066;15.396;2024-03-06T06:43:14;6.90;99.90
13074;DHT22;6603;47.066;15.396;2024-03-06T06:45:41;7.00;99.90
13074;DHT22;6603;47.066;15.396;2024-03-06T06:48:07;7.00;99.90
13074;DHT22;6603;47.066;15.396;2024-03-06T06:50:35;7.00;99.90
13074;DHT22;6603;47.066;15.396;2024-03-06T06:53:01;7.20;99.90
13074;DHT22;6603;47.066;15.396;2024-03-06T06:55:27;7.20;99.90
13074;DHT22;6603;47.066;15.396;2024-03-06T06:57:52;7.30;99.90
13074;DHT22;6603;47.066;15.396;2024-03-06T07:00:19;7.40;99.90
13074;DHT22;6603;47.066;15.396;2024-03-06T07:02:47;7.50;99.90
13074;DHT22;6603;47.066;15.396;2024-03-06T07:05:13;7.50;99.90
13074;DHT22;6603;47.066;15.396;2024-03-06T07:07:39;7.60;99.90
13074;DHT22;6603;47.066;15.396;2024-03-06T07:10:06;7.70;99.90
13074;DHT22;6603;47.066;15.396;2024-03-06T07:12:32;7.70;99.90
13074;DHT22;6603;47.066;15.396;2024-03-06T07:14:58;7.70;99.90
13074;DHT22;6603;47.066;15.396;2024-03-06T07:17:25;7.70;99.90
13074;DHT22;6603;47.066;15.396;2024-03-06T07:19:52;7.70;99.90
13074;DHT22;6603;47.066;15.396;2024-03-06T07:22:19;7.70;99.90
13074;DHT22;6603;47.066;15.396;2024-03-06T07:24:44;7.80;99.90
13074;DHT22;6603;47.066;15.396;2024-03-06T07:27:10;7.80;99.90
13074;DHT22;6603;47.066;15.396;2024-03-06T07:29:36;7.80;99.90
13074;DHT22;6603;47.066;15.396;2024-03-06T07:32:03;8.00;99.90
13074;DHT22;6603;47.066;15.396;2024-03-06T07:34:31;8.00;99.90
13074;DHT22;6603;47.066;15.396;2024-03-06T07:36:57;8.10;99.90
13074;DHT22;6603;47.066;15.396;2024-03-06T07:39:27;8.10;99.90
13074;DHT22;6603;47.066;15.396;2024-03-06T07:41:53;8.10;99.90
13074;DHT22;6603;47.066;15.396;2024-03-06T07:44:20;8.10;99.90
13074;DHT22;6603;47.066;15.396;2024-03-06T07:46:46;8.10;99.90
13074;DHT22;6603;47.066;15.396;2024-03-06T07:49:12;8.10;99.90
13074;DHT22;6603;47.066;15.396;2024-03-06T07:51:38;8.10;99.90
13074;DHT22;6603;47.066;15.396;2024-03-06T07:54:06;8.10;99.90
13074;DHT22;6603;47.066;15.396;2024-03-06T07:56:32;8.10;99.90
13074;DHT22;6603;47.066;15.396;2024-03-06T07:58:58;8.20;99.90
13074;DHT22;6603;47.066;15.396;2024-03-06T08:01:24;8.30;99.90
13074;DHT22;6603;47.066;15.396;2024-03-06T08:03:50;8.30;99.90
13074;DHT22;6603;47.066;15.396;2024-03-06T08:06:15;8.30;99.90
13074;DHT22;6603;47.066;15.396;2024-03-06T08:08:42;8.30;99.90
13074;DHT22;6603;47.066;15.396;2024-03-06T08:11:10;8.30;99.90
13074;DHT22;6603;47.066;15.396;2024-03-06T08:13:40;8.40;99.90
13074;DHT22;6603;47.066;15.396;2024-03-06T08:16:07;8.40;99.90
13074;DHT22;6603;47.066;15.396;2024-03-06T08:18:34;8.40;99.90
13074;DHT22;6603;47.066;15.396;2024-03-06T08:21:01;8.50;99.90
13074;DHT22;6603;47.066;15.396;2024-03-06T08:23:29;8.50;99.90
13074;DHT22;6603;47.066;15.396;2024-03-06T08:25:56;8.60;99.90
13074;DHT22;6603;47.066;15.396;2024-03-06T08:28:22;8.60;99.90
13074;DHT22;6603;47.066;15.396;2024-03-06T08:30:48;8.70;99.90
13074;DHT22;6603;47.066;15.396;2024-03-06T08:33:14;8.80;99.90
13074;DHT22;6603;47.066;15.396;2024-03-06T08:35:41;8.80;99.90
13074;DHT22;6603;47.066;15.396;2024-03-06T08:38:07;8.80;99.90
13074;DHT22;6603;47.066;15.396;2024-03-06T08:40:34;8.80;99.90
13074;DHT22;6603;47.066;15.396;2024-03-06T08:43:00;8.80;99.90
13074;DHT22;6603;47.066;15.396;2024-03-06T08:45:26;8.90;99.90
13074;DHT22;6603;47.066;15.396;2024-03-06T08:47:52;9.00;99.90
13074;DHT22;6603;47.066;15.396;2024-03-06T08:50:20;9.00;99.90
13074;DHT22;6603;47.066;15.396;2024-03-06T08:52:47;9.00;99.90
13074;DHT22;6603;47.066;15.396;2024-03-06T08:55:13;9.10;99.90
13074;DHT22;6603;47.066;15.396;2024-03-06T08:57:39;9.10;99.90
13074;DHT22;6603;47.066;15.396;2024-03-06T09:00:07;9.10;99.90
13074;DHT22;6603;47.066;15.396;2024-03-06T09:02:37;9.10;99.90
13074;DHT22;6603;47.066;15.396;2024-03-06T09:05:10;8.90;99.90
13074;DHT22;6603;47.066;15.396;2024-03-06T09:07:37;8.90;99.90
13074;DHT22;6603;47.066;15.396;2024-03-06T09:10:05;9.00;97.00
13074;DHT22;6603;47.066;15.396;2024-03-06T09:12:34;9.00;95.30
13074;DHT22;6603;47.066;15.396;2024-03-06T09:15:01;8.90;99.00
13074;DHT22;6603;47.066;15.396;2024-03-06T09:17:27;9.00;99.90
13074;DHT22;6603;47.066;15.396;2024-03-06T09:19:53;9.00;99.90
13074;DHT22;6603;47.066;15.396;2024-03-06T09:22:20;9.00;94.60
13074;DHT22;6603;47.066;15.396;2024-03-06T09:24:46;9.00;99.90
13074;DHT22;6603;47.066;15.396;2024-03-06T09:27:14;9.10;94.80
13074;DHT22;6603;47.066;15.396;2024-03-06T09:29:41;9.10;87.70
13074;DHT22;6603;47.066;15.396;2024-03-06T09:32:07;9.20;86.20
13074;DHT22;6603;47.066;15.396;2024-03-06T09:34:33;9.20;95.00
13074;DHT22;6603;47.066;15.396;2024-03-06T09:36:59;9.30;86.60
13074;DHT22;6603;47.066;15.396;2024-03-06T09:39:25;9.30;90.20
13074;DHT22;6603;47.066;15.396;2024-03-06T09:41:52;9.40;59.20
13074;DHT22;6603;47.066;15.396;2024-03-06T09:44:20;9.40;50.90
13074;DHT22;6603;47.066;15.396;2024-03-06T09:46:48;9.40;71.70
13074;DHT22;6603;47.066;15.396;2024-03-06T09:49:18;9.40;53.20
13074;DHT22;6603;47.066;15.396;2024-03-06T09:51:46;9.40;43.80
13074;DHT22;6603;47.066;15.396;2024-03-06T09:54:16;9.50;50.70
13074;DHT22;6603;47.066;15.396;2024-03-06T09:56:43;9.50;51.10
13074;DHT22;6603;47.066;15.396;2024-03-06T09:59:11;9.50;41.70
13074;DHT22;6603;47.066;15.396;2024-03-06T10:04:38;9.60;59.60
13074;DHT22;6603;47.066;15.396;2024-03-06T10:07:04;9.70;36.50
13074;DHT22;6603;47.066;15.396;2024-03-06T10:09:33;9.60;4.90
13074;DHT22;6603;47.066;15.396;2024-03-06T10:11:59;9.70;26.70
13074;DHT22;6603;47.066;15.396;2024-03-06T10:14:26;9.70;33.50
13074;DHT22;6603;47.066;15.396;2024-03-06T10:16:59;9.80;26.20
13074;DHT22;6603;47.066;15.396;2024-03-06T10:19:29;9.80;17.00
13074;DHT22;6603;47.066;15.396;2024-03-06T10:21:56;9.90;34.80
13074;DHT22;6603;47.066;15.396;2024-03-06T10:24:24;10.10;12.40
13074;DHT22;6603;47.066;15.396;2024-03-06T10:26:51;10.20;1.00
13074;DHT22;6603;47.066;15.396;2024-03-06T10:29:20;10.20;26.00
13074;DHT22;6603;47.066;15.396;2024-03-06T10:31:51;10.30;26.00
13074;DHT22;6603;47.066;15.396;2024-03-06T10:34:17;10.20;1.00
13074;DHT22;6603;47.066;15.396;2024-03-06T10:36:44;10.40;15.20
13074;DHT22;6603;47.066;15.396;2024-03-06T10:39:12;10.40;1.00
13074;DHT22;6603;47.066;15.396;2024-03-06T10:41:43;10.30;1.00
13074;DHT22;6603;47.066;15.396;2024-03-06T10:44:12;10.30;1.00
13074;DHT22;6603;47.066;15.396;2024-03-06T10:46:44;10.30;1.00
13074;DHT22;6603;47.066;15.396;2024-03-06T10:49:13;10.30;1.00
13074;DHT22;6603;47.066;15.396;2024-03-06T10:51:44;10.30;1.00
13074;DHT22;6603;47.066;15.396;2024-03-06T10:54:14;10.40;1.00
13074;DHT22;6603;47.066;15.396;2024-03-06T10:56:40;10.60;1.00
13074;DHT22;6603;47.066;15.396;2024-03-06T10:59:11;10.70;1.00
13074;DHT22;6603;47.066;15.396;2024-03-06T11:01:40;10.60;1.00
13074;DHT22;6603;47.066;15.396;2024-03-06T11:04:06;10.70;1.00
13074;DHT22;6603;47.066;15.396;2024-03-06T11:06:33;10.60;1.00
13074;DHT22;6603;47.066;15.396;2024-03-06T11:09:01;10.70;1.00
13074;DHT22;6603;47.066;15.396;2024-03-06T11:11:29;10.80;1.00
13074;DHT22;6603;47.066;15.396;2024-03-06T11:14:06;10.70;1.00
13074;DHT22;6603;47.066;15.396;2024-03-06T11:17:03;10.80;1.00
13074;DHT22;6603;47.066;15.396;2024-03-06T11:19:31;10.90;1.00
13074;DHT22;6603;47.066;15.396;2024-03-06T11:21:58;11.00;1.00
13074;DHT22;6603;47.066;15.396;2024-03-06T11:24:34;11.00;1.00
13074;DHT22;6603;47.066;15.396;2024-03-06T11:27:04;11.00;1.00
13074;DHT22;6603;47.066;15.396;2024-03-06T11:30:07;11.20;1.00
13074;DHT22;6603;47.066;15.396;2024-03-06T11:32:58;11.20;1.00
13074;DHT22;6603;47.066;15.396;2024-03-06T11:35:28;11.10;1.00
13074;DHT22;6603;47.066;15.396;2024-03-06T11:37:54;11.20;1.00
13074;DHT22;6603;47.066;15.396;2024-03-06T11:40:24;11.30;1.00
13074;DHT22;6603;47.066;15.396;2024-03-06T11:42:50;11.20;1.00
13074;DHT22;6603;47.066;15.396;2024-03-06T11:45:17;11.20;1.00
13074;DHT22;6603;47.066;15.396;2024-03-06T11:50:36;11.40;1.00
13074;DHT22;6603;47.066;15.396;2024-03-06T11:53:02;11.40;1.00
13074;DHT22;6603;47.066;15.396;2024-03-06T11:55:30;11.60;1.00
13074;DHT22;6603;47.066;15.396;2024-03-06T11:57:56;11.30;1.00
13074;DHT22;6603;47.066;15.396;2024-03-06T12:00:23;11.40;1.00
13074;DHT22;6603;47.066;15.396;2024-03-06T12:02:52;11.40;1.00
13074;DHT22;6603;47.066;15.396;2024-03-06T12:05:19;11.50;1.00
13074;DHT22;6603;47.066;15.396;2024-03-06T12:07:47;11.60;1.00
13074;DHT22;6603;47.066;15.396;2024-03-06T12:10:13;11.70;1.00
13074;DHT22;6603;47.066;15.396;2024-03-06T12:12:41;11.70;1.00
13074;DHT22;6603;47.066;15.396;2024-03-06T12:15:09;11.90;1.00
13074;DHT22;6603;47.066;15.396;2024-03-06T12:17:48;11.90;1.00
13074;DHT22;6603;47.066;15.396;2024-03-06T12:20:18;11.70;1.00
13074;DHT22;6603;47.066;15.396;2024-03-06T12:22:54;11.90;1.00
13074;DHT22;6603;47.066;15.396;2024-03-06T12:25:26;11.90;1.00
13074;DHT22;6603;47.066;15.396;2024-03-06T12:27:54;12.00;1.00
13074;DHT22;6603;47.066;15.396;2024-03-06T12:30:21;12.00;1.00
13074;DHT22;6603;47.066;15.396;2024-03-06T12:33:01;11.80;1.00
13074;DHT22;6603;47.066;15.396;2024-03-06T12:35:31;11.80;1.00
13074;DHT22;6603;47.066;15.396;2024-03-06T12:37:57;11.70;1.00
13074;DHT22;6603;47.066;15.396;2024-03-06T12:40:24;11.60;1.00
13074;DHT22;6603;47.066;15.396;2024-03-06T12:42:50;11.60;1.00
13074;DHT22;6603;47.066;15.396;2024-03-06T12:45:18;11.60;1.00
13074;DHT22;6603;47.066;15.396;2024-03-06T12:47:45;11.80;1.00
13074;DHT22;6603;47.066;15.396;2024-03-06T12:50:14;12.40;1.00
13074;DHT22;6603;47.066;15.396;2024-03-06T12:52:41;12.70;1.00
13074;DHT22;6603;47.066;15.396;2024-03-06T12:55:07;12.60;1.00
13074;DHT22;6603;47.066;15.396;2024-03-06T12:57:34;12.70;1.00
13074;DHT22;6603;47.066;15.396;2024-03-06T13:00:00;12.70;99.90
13074;DHT22;6603;47.066;15.396;2024-03-06T13:02:26;12.60;1.00
13074;DHT22;6603;47.066;15.396;2024-03-06T13:04:53;12.40;99.90
13074;DHT22;6603;47.066;15.396;2024-03-06T13:07:19;12.40;1.00
13074;DHT22;6603;47.066;15.396;2024-03-06T13:09:45;12.20;1.00
13074;DHT22;6603;47.066;15.396;2024-03-06T13:12:11;12.30;17.50
13074;DHT22;6603;47.066;15.396;2024-03-06T13:14:37;12.10;99.90
13074;DHT22;6603;47.066;15.396;2024-03-06T13:17:03;12.10;99.90
13074;DHT22;6603;47.066;15.396;2024-03-06T13:19:29;12.40;85.40
13074;DHT22;6603;47.066;15.396;2024-03-06T13:21:55;12.40;99.90
13074;DHT22;6603;47.066;15.396;2024-03-06T13:24:21;12.20;1.00
13074;DHT22;6603;47.066;15.396;2024-03-06T13:26:47;12.50;1.00
13074;DHT22;6603;47.066;15.396;2024-03-06T13:29:13;12.60;59.30
13074;DHT22;6603;47.066;15.396;2024-03-06T13:31:39;12.60;1.00
13074;DHT22;6603;47.066;15.396;2024-03-06T13:34:06;12.70;1.00
13074;DHT22;6603;47.066;15.396;2024-03-06T13:36:33;12.60;99.90
13074;DHT22;6603;47.066;15.396;2024-03-06T13:38:59;12.70;1.00
13074;DHT22;6603;47.066;15.396;2024-03-06T13:41:25;12.80;1.00
13074;DHT22;6603;47.066;15.396;2024-03-06T13:43:51;12.70;6.20
13074;DHT22;6603;47.066;15.396;2024-03-06T13:46:17;12.60;1.00
13074;DHT22;6603;47.066;15.396;2024-03-06T13:48:43;12.60;1.00
13074;DHT22;6603;47.066;15.396;2024-03-06T13:51:09;12.60;1.00
13074;DHT22;6603;47.066;15.396;2024-03-06T13:53:35;12.70;1.00
13074;DHT22;6603;47.066;15.396;2024-03-06T13:56:01;12.60;1.00
13074;DHT22;6603;47.066;15.396;2024-03-06T13:58:26;12.50;99.90
13074;DHT22;6603;47.066;15.396;2024-03-06T14:00:52;12.50;1.00
13074;DHT22;6603;47.066;15.396;2024-03-06T14:03:18;12.50;49.30
13074;DHT22;6603;47.066;15.396;2024-03-06T14:05:44;12.50;1.00
13074;DHT22;6603;47.066;15.396;2024-03-06T14:08:11;12.60;99.90
13074;DHT22;6603;47.066;15.396;2024-03-06T14:10:40;12.60;1.00
13074;DHT22;6603;47.066;15.396;2024-03-06T14:13:06;12.60;1.00
13074;DHT22;6603;47.066;15.396;2024-03-06T14:15:34;12.60;1.00
13074;DHT22;6603;47.066;15.396;2024-03-06T14:18:00;12.70;1.00
13074;DHT22;6603;47.066;15.396;2024-03-06T14:20:27;12.60;1.00
13074;DHT22;6603;47.066;15.396;2024-03-06T14:22:54;12.60;1.00
13074;DHT22;6603;47.066;15.396;2024-03-06T14:25:20;12.50;1.00
13074;DHT22;6603;47.066;15.396;2024-03-06T14:27:46;12.50;99.90
13074;DHT22;6603;47.066;15.396;2024-03-06T14:30:13;12.60;1.00
13074;DHT22;6603;47.066;15.396;2024-03-06T14:32:41;12.70;1.00
13074;DHT22;6603;47.066;15.396;2024-03-06T14:35:07;12.70;99.90
13074;DHT22;6603;47.066;15.396;2024-03-06T14:37:33;12.80;1.00
13074;DHT22;6603;47.066;15.396;2024-03-06T14:39:59;12.70;1.00
13074;DHT22;6603;47.066;15.396;2024-03-06T14:42:25;12.70;35.60
13074;DHT22;6603;47.066;15.396;2024-03-06T14:44:51;12.70;1.00
13074;DHT22;6603;47.066;15.396;2024-03-06T14:47:21;12.80;1.00
13074;DHT22;6603;47.066;15.396;2024-03-06T14:49:47;12.80;93.90
13074;DHT22;6603;47.066;15.396;2024-03-06T14:52:13;12.70;1.00
13074;DHT22;6603;47.066;15.396;2024-03-06T14:54:39;12.60;99.90
13074;DHT22;6603;47.066;15.396;2024-03-06T14:57:08;12.60;1.00
13074;DHT22;6603;47.066;15.396;2024-03-06T14:59:44;12.60;1.00
13074;DHT22;6603;47.066;15.396;2024-03-06T15:02:10;12.70;42.30
13074;DHT22;6603;47.066;15.396;2024-03-06T15:04:36;12.60;99.90
13074;DHT22;6603;47.066;15.396;2024-03-06T15:07:02;12.50;1.00
13074;DHT22;6603;47.066;15.396;2024-03-06T15:09:28;12.30;99.90
13074;DHT22;6603;47.066;15.396;2024-03-06T15:11:54;12.30;1.00
13074;DHT22;6603;47.066;15.396;2024-03-06T15:14:21;12.30;99.90
13074;DHT22;6603;47.066;15.396;2024-03-06T15:16:48;12.20;1.00
13074;DHT22;6603;47.066;15.396;2024-03-06T15:19:14;12.10;1.00
13074;DHT22;6603;47.066;15.396;2024-03-06T15:21:41;12.00;1.00
13074;DHT22;6603;47.066;15.396;2024-03-06T15:24:07;11.90;1.00
13074;DHT22;6603;47.066;15.396;2024-03-06T15:26:33;11.80;97.80
13074;DHT22;6603;47.066;15.396;2024-03-06T15:29:01;11.80;1.00
13074;DHT22;6603;47.066;15.396;2024-03-06T15:31:27;11.80;19.50
13074;DHT22;6603;47.066;15.396;2024-03-06T15:33:52;11.70;72.90
13074;DHT22;6603;47.066;15.396;2024-03-06T15:36:18;11.70;1.00
13074;DHT22;6603;47.066;15.396;2024-03-06T15:38:44;11.60;1.00
13074;DHT22;6603;47.066;15.396;2024-03-06T15:41:10;11.60;1.00
13074;DHT22;6603;47.066;15.396;2024-03-06T15:43:37;11.50;1.00
13074;DHT22;6603;47.066;15.396;2024-03-06T15:46:02;11.40;1.00
13074;DHT22;6603;47.066;15.396;2024-03-06T15:48:28;11.30;1.00
13074;DHT22;6603;47.066;15.396;2024-03-06T15:50:56;11.30;1.00
13074;DHT22;6603;47.066;15.396;2024-03-06T15:53:22;11.20;1.00